createdAt,value
2018-08-06T00:02:51.058Z,99933.77
2018-08-06T00:08:56.671Z,99937.23
2018-08-06T00:15:02.283Z,99942.59
2018-08-06T00:21:07.921Z,99936.50
2018-08-06T00:27:13.501Z,99928.14
2018-08-06T00:33:19.073Z,99924.04
2018-08-06T00:39:24.666Z,99927.66
2018-08-06T00:45:30.482Z,99936.09
2018-08-06T00:51:36.303Z,99924.64
2018-08-06T00:57:42.394Z,99914.16
2018-08-06T01:03:47.955Z,99915.92
2018-08-06T01:09:53.592Z,99910.61
2018-08-06T01:15:59.183Z,99908.63
2018-08-06T01:22:05.007Z,99895.63
2018-08-06T01:28:10.948Z,99889.14
2018-08-06T01:34:16.747Z,99885.92
2018-08-06T01:40:22.326Z,99886.91
2018-08-06T01:46:27.918Z,99890.27
2018-08-06T01:52:33.562Z,99888.48
2018-08-06T01:58:39.148Z,99891.86
2018-08-06T02:04:44.703Z,99895.05
2018-08-06T02:10:50.293Z,99886.61
2018-08-06T02:16:55.943Z,99892.99
2018-08-06T02:23:01.504Z,99889.64
2018-08-06T02:29:07.166Z,99878.83
2018-08-06T02:35:14.693Z,99870.16
2018-08-06T02:41:20.279Z,99872.87
2018-08-06T02:47:25.922Z,99868.06
2018-08-06T02:53:31.570Z,99864.72
2018-08-06T02:59:37.171Z,99857.37
2018-08-06T03:05:42.759Z,99858.27
2018-08-06T03:11:48.337Z,99853.67
2018-08-06T03:17:53.892Z,99853.27
2018-08-06T03:23:59.530Z,99850.16
2018-08-06T03:30:07.296Z,99851.63
2018-08-06T03:36:13.020Z,99850.65
2018-08-06T03:42:18.665Z,99855.34
2018-08-06T03:48:24.314Z,99855.14
2018-08-06T03:54:29.931Z,99853.08
2018-08-06T04:00:35.548Z,99854.32
2018-08-06T04:06:41.110Z,99849.41
2018-08-06T04:12:47.073Z,99850.91
2018-08-06T04:18:52.634Z,99856.80
2018-08-06T04:24:58.244Z,99852.45
2018-08-06T04:31:03.849Z,99853.35
2018-08-06T04:37:09.477Z,99851.55
2018-08-06T04:43:15.122Z,99855.00
2018-08-06T04:49:20.708Z,99857.73
2018-08-06T04:55:26.344Z,99861.08
2018-08-06T05:01:31.954Z,99862.81
2018-08-06T05:07:37.571Z,99869.75
2018-08-06T05:13:43.200Z,99876.09
2018-08-06T05:19:48.754Z,99865.69
2018-08-06T05:25:54.362Z,99860.02
2018-08-06T05:31:59.968Z,99860.95
2018-08-06T05:38:05.770Z,99865.54
2018-08-06T05:44:11.344Z,99858.71
2018-08-06T05:50:16.969Z,99853.59
2018-08-06T05:56:22.568Z,99852.73
2018-08-06T06:02:28.149Z,99856.28
2018-08-06T06:08:33.819Z,99858.09
2018-08-06T06:14:39.441Z,99861.45
2018-08-06T06:20:45.054Z,99858.92
2018-08-06T06:26:50.654Z,99858.61
2018-08-06T06:32:56.260Z,99857.40
2018-08-06T06:39:01.842Z,99860.77
2018-08-06T06:45:09.034Z,99862.44
2018-08-06T06:51:14.645Z,99851.84
2018-08-06T06:57:20.308Z,99845.91
2018-08-06T07:03:25.900Z,99853.22
2018-08-06T07:09:31.542Z,99855.28
2018-08-06T07:15:37.197Z,99852.20
2018-08-06T07:21:42.790Z,99846.40
2018-08-06T07:27:49.281Z,99835.22
2018-08-06T07:33:55.348Z,99832.02
2018-08-06T07:40:01.387Z,99835.81
2018-08-06T07:46:07.707Z,99828.45
2018-08-06T07:52:13.879Z,99819.34
2018-08-06T07:58:19.784Z,99813.86
2018-08-06T08:04:25.874Z,99803.09
2018-08-06T08:10:31.919Z,99790.09
2018-08-06T08:16:37.895Z,99789.17
2018-08-06T08:22:44.132Z,99787.03
2018-08-06T08:28:50.348Z,99783.18
2018-08-06T08:34:56.381Z,99772.34
2018-08-06T08:41:02.398Z,99772.03
2018-08-06T08:47:08.456Z,99756.30
2018-08-06T08:53:14.562Z,99763.59
2018-08-06T08:59:20.580Z,99753.02
2018-08-06T09:05:26.672Z,99737.95
2018-08-06T09:11:32.584Z,99731.88
2018-08-06T09:17:38.652Z,99728.33
2018-08-06T09:23:44.621Z,99724.21
2018-08-06T09:29:50.638Z,99718.39
2018-08-06T09:35:56.635Z,99711.80
2018-08-06T09:42:02.724Z,99709.41
2018-08-06T09:48:08.776Z,99709.29
2018-08-06T09:54:14.757Z,99697.57
2018-08-06T10:00:27.203Z,99690.73
2018-08-06T10:06:33.269Z,99689.05
2018-08-06T10:12:39.247Z,99677.35
2018-08-06T10:18:45.278Z,99673.11
2018-08-06T10:24:51.211Z,99656.39
2018-08-06T10:30:57.451Z,99643.14
2018-08-06T10:37:03.396Z,99623.94
2018-08-06T10:43:09.409Z,99627.53
2018-08-06T10:49:15.305Z,99614.17
2018-08-06T10:55:21.406Z,99614.02
2018-08-06T11:01:27.411Z,99593.36
2018-08-06T11:07:33.358Z,99566.81
2018-08-06T11:13:39.365Z,99578.42
2018-08-06T11:19:45.112Z,99567.05
2018-08-06T11:25:50.725Z,99558.98
2018-08-06T11:31:56.385Z,99551.16
2018-08-06T11:38:02.016Z,99546.34
2018-08-06T11:44:08.267Z,99536.88
2018-08-06T11:50:13.978Z,99525.91
2018-08-06T11:56:19.580Z,99514.78
2018-08-06T12:02:25.644Z,99511.90
2018-08-06T12:08:31.579Z,99511.42
2018-08-06T12:14:37.457Z,99495.23
2018-08-06T12:20:43.316Z,99490.06
2018-08-06T12:26:48.969Z,99481.30
2018-08-06T12:32:55.102Z,99478.13
2018-08-06T12:39:12.055Z,99468.77
2018-08-06T12:45:18.317Z,99466.53
2018-08-06T12:51:24.040Z,99462.38
2018-08-06T12:57:29.678Z,99466.50
2018-08-06T13:03:35.455Z,99454.47
2018-08-06T13:09:41.427Z,99440.08
2018-08-06T13:15:47.349Z,99432.23
2018-08-06T13:21:53.317Z,99428.08
2018-08-06T13:27:59.043Z,99417.77
2018-08-06T13:34:04.805Z,99406.11
2018-08-06T13:40:11.428Z,99410.92
2018-08-06T13:46:17.117Z,99406.13
2018-08-06T13:52:22.739Z,99391.61
2018-08-06T13:58:28.472Z,99389.89
2018-08-06T14:04:34.101Z,99381.73
2018-08-06T14:10:39.759Z,99377.78
2018-08-06T14:16:45.599Z,99372.59
2018-08-06T14:22:51.548Z,99359.95
2018-08-06T14:28:57.604Z,99347.77
2018-08-06T14:35:03.549Z,99342.84
2018-08-06T14:41:09.596Z,99340.06
2018-08-06T14:47:15.566Z,99333.45
2018-08-06T14:53:21.659Z,99326.44
2018-08-06T14:59:27.671Z,99321.58
2018-08-06T15:05:33.690Z,99320.20
2018-08-06T15:11:39.495Z,99312.80
2018-08-06T15:17:45.672Z,99309.13
2018-08-06T15:23:51.484Z,99303.47
2018-08-06T15:29:57.034Z,99302.25
2018-08-06T15:36:02.978Z,99307.22
2018-08-06T15:42:08.995Z,99292.66
2018-08-06T15:48:14.957Z,99283.92
2018-08-06T15:54:20.858Z,99280.53
2018-08-06T16:00:26.982Z,99268.92
2018-08-06T16:06:32.935Z,99266.00
2018-08-06T16:12:38.953Z,99252.70
2018-08-06T16:18:44.849Z,99243.91
2018-08-06T16:24:50.911Z,99239.33
2018-08-06T16:30:56.733Z,99241.94
2018-08-06T16:37:02.622Z,99232.78
2018-08-06T16:43:08.877Z,99236.30
2018-08-06T16:49:14.947Z,99232.09
2018-08-06T16:55:20.626Z,99225.16
2018-08-06T17:01:26.019Z,99210.05
2018-08-06T17:07:31.506Z,99211.09
2018-08-06T17:13:37.091Z,99210.65
2018-08-06T17:19:42.751Z,99195.86
2018-08-06T17:25:48.349Z,99195.89
2018-08-06T17:31:53.924Z,99196.25
2018-08-06T17:37:59.526Z,99189.38
2018-08-06T17:44:05.201Z,99187.56
2018-08-06T17:50:13.918Z,99192.93
2018-08-06T17:56:19.530Z,99187.76
2018-08-06T18:02:25.215Z,99180.75
2018-08-06T18:08:30.794Z,99190.05
2018-08-06T18:14:36.440Z,99183.26
2018-08-06T18:20:42.060Z,99179.53
2018-08-06T18:26:47.653Z,99180.61
2018-08-06T18:32:53.355Z,99184.75
2018-08-06T18:38:58.926Z,99182.15
2018-08-06T18:45:06.032Z,99186.55
2018-08-06T18:51:11.629Z,99184.60
2018-08-06T18:57:17.254Z,99182.23
2018-08-06T19:03:22.853Z,99187.93
2018-08-06T19:09:28.426Z,99194.46
2018-08-06T19:15:34.028Z,99199.41
2018-08-06T19:21:39.603Z,99205.08
2018-08-06T19:27:45.237Z,99202.63
2018-08-06T19:33:50.741Z,99201.05
2018-08-06T19:39:56.304Z,99203.46
2018-08-06T19:46:01.845Z,99203.10
2018-08-06T19:52:07.670Z,99202.57
2018-08-06T19:58:13.452Z,99209.31
2018-08-06T20:04:18.992Z,99210.59
2018-08-06T20:10:24.676Z,99215.75
2018-08-06T20:16:30.222Z,99215.69
2018-08-06T20:22:35.827Z,99219.98
2018-08-06T20:28:41.493Z,99217.23
2018-08-06T20:34:47.107Z,99214.73
2018-08-06T20:40:52.688Z,99208.25
2018-08-06T20:46:58.363Z,99213.70
2018-08-06T20:53:03.932Z,99217.59
2018-08-06T20:59:09.565Z,99224.05
2018-08-06T21:05:15.266Z,99230.45
2018-08-06T21:11:20.878Z,99236.72
2018-08-06T21:17:26.470Z,99234.28
2018-08-06T21:23:32.109Z,99233.79
2018-08-06T21:29:37.667Z,99238.89
2018-08-06T21:35:43.324Z,99236.45
2018-08-06T21:41:48.939Z,99238.22
2018-08-06T21:47:54.588Z,99244.52
2018-08-06T21:54:00.299Z,99239.29
2018-08-06T22:00:11.277Z,99240.39
2018-08-06T22:06:17.089Z,99234.59
2018-08-06T22:12:23.517Z,99234.17
2018-08-06T22:18:29.202Z,99231.77
2018-08-06T22:24:34.815Z,99236.23
2018-08-06T22:30:40.463Z,99231.31
2018-08-06T22:36:46.061Z,99224.14
2018-08-06T22:42:51.617Z,99221.96
2018-08-06T22:48:57.216Z,99216.81
2018-08-06T22:55:02.798Z,99217.80
2018-08-06T23:01:10.581Z,99212.61
2018-08-06T23:07:16.495Z,99206.96
2018-08-06T23:13:22.424Z,99205.53
2018-08-06T23:19:28.310Z,99199.17
2018-08-06T23:25:34.026Z,99195.12
2018-08-06T23:31:39.608Z,99196.75
2018-08-06T23:37:45.667Z,99190.41
2018-08-06T23:43:51.343Z,99187.96
2018-08-06T23:49:56.917Z,99175.85
2018-08-06T23:56:02.561Z,99170.87
